Terminal Aerodrome Forecast
Issued by NWS Wilmington, OH

Current Version | Previous Version | Text Only | Print | Product List | Glossary Off
Versions: 1 2 3 4 5 6 7 8 9 10 11 12 13 14 15 16 17 18 19 20 21 22 23 24 25 26 27 28 29 30

000
FTUS41 KILN 022100 AAA
TAFCVG
TAF AMD
KCVG 022145Z 0222/0324 VRB04KT P6SM BKN250
     FM030300 09007KT P6SM SCT012 OVC150
      TEMPO 0312/0314 11008KT -FZRA OVC020
     FM031400 14008KT 5SM -FZRA OVC018
      TEMPO 0315/0317 3SM -RA BKN008 OVC025
     FM031700 20012KT 3SM -RA OVC010=

USA.gov is the U.S. government's official web portal to all federal, state and local government web resources and services.